Time;durP1;ratioP1;P1;durP2;ratioP2;P2;SDS_P1;SDS_P2;PMS_P1;PMS_P2;Temp;Humidity;BMP_temperature;BMP_pressure;BME280_temperature;BME280_humidity;BME280_pressure;Samples;Min_cycle;Max_cycle;Signal;HPM_P1;HPM_P2
2022/03/31 00:01:26;;;;;;;1.15;1.02;;;;;;;18.68;28.64;101581.25;4197071;28;20114;-61
2022/03/31 00:03:27;;;;;;;1.55;1.05;;;;;;;18.66;28.88;101580.69;4196901;28;20086;-59
2022/03/31 00:05:32;;;;;;;2.85;1.02;;;;;;;18.67;28.81;101574.03;4197284;28;20036;-60
2022/03/31 00:07:33;;;;;;;1.60;1.20;;;;;;;18.68;28.53;101574.88;4197408;28;20048;-60
2022/03/31 00:09:40;;;;;;;1.52;1.00;;;;;;;18.68;29.04;101580.44;4196946;28;20442;-60
2022/03/31 00:11:41;;;;;;;3.40;1.20;;;;;;;18.67;28.93;101574.03;4196790;28;20048;-58
2022/03/31 00:13:43;;;;;;;1.95;1.42;;;;;;;18.66;28.62;101577.91;4197434;28;20040;-59
2022/03/31 00:15:44;;;;;;;1.83;1.10;;;;;;;18.59;28.54;101571.69;4197306;28;20036;-59
2022/03/31 00:17:46;;;;;;;1.63;1.08;;;;;;;18.65;29.02;101581.78;4196928;28;20036;-61
2022/03/31 00:19:48;;;;;;;1.80;1.10;;;;;;;18.66;28.76;101577.09;4197304;28;20048;-58
2022/03/31 00:21:49;;;;;;;2.15;1.20;;;;;;;18.65;28.70;101576.25;4196666;28;20040;-59
2022/03/31 00:23:50;;;;;;;1.80;1.30;;;;;;;18.65;29.04;101581.78;4196382;28;20063;-60
2022/03/31 00:25:52;;;;;;;2.20;1.00;;;;;;;18.66;28.94;101582.63;4199450;28;20078;-59
2022/03/31 00:27:57;;;;;;;2.33;1.13;;;;;;;18.65;28.94;101580.94;4182618;28;20041;-59
2022/03/31 00:29:58;;;;;;;2.88;1.30;;;;;;;18.64;29.16;101588.41;4200397;28;20183;-59
2022/03/31 00:32:03;;;;;;;1.52;1.10;;;;;;;18.64;29.20;101593.94;4200084;28;20106;-60
2022/03/31 00:34:04;;;;;;;1.63;1.00;;;;;;;18.65;29.16;101590.09;4200529;28;20109;-60
2022/03/31 00:36:05;;;;;;;1.17;0.93;;;;;;;18.65;29.28;101581.78;4200381;28;20093;-58
2022/03/31 00:38:11;;;;;;;1.55;1.20;;;;;;;18.64;29.16;101584.78;4200492;28;20040;-59
2022/03/31 00:40:18;;;;;;;1.48;0.85;;;;;;;18.63;28.98;101583.13;4200202;28;20709;-61
2022/03/31 00:42:22;;;;;;;2.28;1.05;;;;;;;18.64;29.32;101585.63;4199272;28;20425;-58
2022/03/31 00:44:23;;;;;;;3.05;1.52;;;;;;;18.63;29.18;101583.94;4200117;28;20037;-59
2022/03/31 00:46:25;;;;;;;1.75;0.90;;;;;;;18.64;29.09;101582.84;4200556;28;20545;-59
2022/03/31 00:48:27;;;;;;;1.15;0.93;;;;;;;18.62;28.92;101573.13;4200319;28;20097;-59
2022/03/31 00:50:30;;;;;;;1.33;1.17;;;;;;;18.64;29.00;101580.09;4199319;28;20032;-60
2022/03/31 00:52:31;;;;;;;2.30;0.95;;;;;;;18.64;29.12;101574.53;4199838;28;20040;-59
2022/03/31 00:54:34;;;;;;;2.17;1.25;;;;;;;18.63;29.14;101583.94;4199985;28;20048;-59
2022/03/31 00:56:37;;;;;;;1.70;1.15;;;;;;;18.63;28.80;101569.25;4200613;28;20028;-59
2022/03/31 00:58:39;;;;;;;1.83;1.15;;;;;;;18.63;28.95;101561.78;4199990;28;20041;-59
2022/03/31 01:00:40;;;;;;;1.30;1.00;;;;;;;18.63;29.13;101566.47;4199535;28;20036;-59
2022/03/31 01:02:44;;;;;;;1.35;1.15;;;;;;;18.62;29.23;101573.97;4199345;28;20758;-60
2022/03/31 01:04:51;;;;;;;1.90;1.00;;;;;;;18.61;29.00;101563.97;4200279;28;20045;-60
2022/03/31 01:06:52;;;;;;;2.40;1.20;;;;;;;18.59;29.28;101548.66;4199686;28;20044;-60
2022/03/31 01:08:54;;;;;;;0.93;0.80;;;;;;;18.62;29.34;101557.31;4200115;28;20046;-59
2022/03/31 01:10:56;;;;;;;1.35;0.98;;;;;;;18.58;28.96;101547.00;4199902;28;20040;-60
2022/03/31 01:12:58;;;;;;;2.60;1.20;;;;;;;18.62;29.19;101548.19;4199374;28;20102;-60
2022/03/31 01:15:09;;;;;;;1.13;0.90;;;;;;;18.61;29.02;101540.97;4199866;28;20431;-60
2022/03/31 01:17:13;;;;;;;2.05;1.10;;;;;;;18.62;28.92;101542.63;4199815;28;20480;-59
2022/03/31 01:19:15;;;;;;;1.60;1.10;;;;;;;18.60;29.04;101534.56;4199332;28;20036;-60
2022/03/31 01:21:16;;;;;;;1.98;1.35;;;;;;;18.61;29.37;101524.31;4200121;28;20074;-60
2022/03/31 01:23:18;;;;;;;1.08;0.80;;;;;;;18.60;29.41;101515.16;4199506;28;20102;-60
2022/03/31 01:25:20;;;;;;;1.30;0.95;;;;;;;18.60;29.45;101515.16;4199228;28;20094;-59
2022/03/31 01:27:25;;;;;;;1.27;1.00;;;;;;;18.59;29.47;101524.56;4199528;28;20040;-60
2022/03/31 01:29:27;;;;;;;;;;;;;;;18.57;29.17;101523.16;4199759;28;20098;-59
2022/03/31 01:31:28;;;;;;;1.98;1.20;;;;;;;18.59;28.93;101510.69;4199355;28;19912;-59
2022/03/31 01:33:32;;;;;;;2.63;1.17;;;;;;;18.59;29.34;101507.94;4198559;28;20472;-59
2022/03/31 01:35:33;;;;;;;1.27;0.90;;;;;;;18.61;29.25;101513.25;4200115;28;20434;-60
2022/03/31 01:37:35;;;;;;;1.27;1.00;;;;;;;18.59;29.33;101512.63;4198720;28;20032;-58
2022/03/31 01:39:36;;;;;;;2.38;1.00;;;;;;;18.60;29.45;101519.84;4199317;28;20500;-60
2022/03/31 01:41:38;;;;;;;2.20;1.02;;;;;;;18.56;29.48;101510.38;4181405;28;20086;-58
2022/03/31 01:43:39;;;;;;;0.77;0.73;;;;;;;18.60;29.24;101519.84;4198433;28;20554;-61
2022/03/31 01:45:41;;;;;;;1.38;0.77;;;;;;;18.58;29.05;101508.19;4199062;28;20037;-59
2022/03/31 01:47:43;;;;;;;1.80;1.38;;;;;;;18.61;29.03;101502.16;4181399;28;20067;-60
2022/03/31 01:49:44;;;;;;;1.77;1.08;;;;;;;18.58;29.38;101503.47;4199314;28;20071;-59
2022/03/31 01:51:46;;;;;;;1.33;0.93;;;;;;;18.57;29.33;101500.97;4198505;28;20549;-60
2022/03/31 01:53:47;;;;;;;1.42;0.93;;;;;;;18.58;29.41;101497.94;4181161;28;20119;-60
2022/03/31 01:55:49;;;;;;;1.65;1.02;;;;;;;18.54;29.11;101494.81;4199258;28;20052;-59
2022/03/31 01:57:53;;;;;;;1.23;1.05;;;;;;;18.57;29.05;101498.19;4199291;28;20102;-60
2022/03/31 01:59:57;;;;;;;1.98;1.05;;;;;;;18.55;29.17;101490.13;4198644;28;20427;-59
2022/03/31 02:01:58;;;;;;;1.63;1.20;;;;;;;18.56;29.57;101483.50;4198764;28;20114;-59
2022/03/31 02:03:59;;;;;;;1.73;1.08;;;;;;;18.55;29.20;101481.81;4199160;28;20041;-60
2022/03/31 02:06:01;;;;;;;1.42;0.80;;;;;;;18.57;29.33;101481.56;4199108;28;20041;-57
2022/03/31 02:08:05;;;;;;;1.60;1.05;;;;;;;18.56;29.18;101469.66;4199129;28;20037;-60
2022/03/31 02:10:12;;;;;;;1.90;1.00;;;;;;;18.56;29.24;101464.09;4198153;28;20041;-59
2022/03/31 02:12:13;;;;;;;1.42;0.90;;;;;;;18.57;29.26;101457.47;4198416;28;20048;-59
2022/03/31 02:14:19;;;;;;;1.60;1.08;;;;;;;18.56;29.51;101450.25;4199551;28;20032;-58
2022/03/31 02:16:21;;;;;;;1.52;1.00;;;;;;;18.56;29.40;101439.16;4199134;28;20098;-59
2022/03/31 02:18:22;;;;;;;2.92;1.10;;;;;;;18.57;29.16;101435.28;4198632;28;20098;-59
2022/03/31 02:20:24;;;;;;;1.33;0.90;;;;;;;18.57;29.13;101428.91;4181073;28;20045;-60
2022/03/31 02:22:26;;;;;;;1.95;1.17;;;;;;;18.57;29.52;101434.44;4198262;28;20106;-59
2022/03/31 02:24:27;;;;;;;1.52;0.65;;;;;;;18.57;29.41;101438.06;4197937;28;20441;-59
2022/03/31 02:26:32;;;;;;;2.45;1.08;;;;;;;18.55;29.13;101429.13;4198603;28;20102;-60
2022/03/31 02:28:34;;;;;;;1.42;1.00;;;;;;;18.57;29.51;101429.75;4198762;28;20125;-60
2022/03/31 02:30:35;;;;;;;2.88;1.10;;;;;;;18.58;29.40;101431.41;4198850;28;20118;-61
2022/03/31 02:32:41;;;;;;;1.58;1.00;;;;;;;18.57;29.26;101420.59;4199040;28;20037;-61
2022/03/31 02:34:42;;;;;;;2.85;1.10;;;;;;;18.55;29.41;101404.19;4198138;28;20044;-59
2022/03/31 02:36:44;;;;;;;2.05;0.88;;;;;;;18.56;29.29;101405.91;4199253;28;20016;-60
2022/03/31 02:38:46;;;;;;;1.10;1.00;;;;;;;18.56;29.34;101405.06;4196473;28;20418;-60
2022/03/31 02:40:48;;;;;;;1.52;1.10;;;;;;;18.57;29.52;101407.56;4198399;28;20090;-59
2022/03/31 02:42:49;;;;;;;1.45;1.20;;;;;;;18.55;29.20;101395.88;4197720;28;20476;-60
2022/03/31 02:44:54;;;;;;;1.73;1.02;;;;;;;18.52;29.39;101388.09;4198583;28;20442;-60
2022/03/31 02:46:55;;;;;;;1.90;1.00;;;;;;;18.52;29.31;101383.38;4198316;28;20094;-59
2022/03/31 02:48:57;;;;;;;1.27;0.80;;;;;;;18.55;29.34;101393.09;4197525;28;20093;-60
2022/03/31 02:50:58;;;;;;;2.08;0.90;;;;;;;18.56;29.32;101393.97;4198367;28;20037;-60
2022/03/31 02:55:28;;;;;;;1.60;1.13;;;;;;;18.55;29.41;101393.09;4199916;28;20066;-60
2022/03/31 02:57:30;;;;;;;2.05;1.10;;;;;;;18.51;29.42;101387.25;4197960;28;20090;-59
2022/03/31 02:59:34;;;;;;;1.20;1.10;;;;;;;18.54;29.23;101386.72;4198310;28;20094;-60
2022/03/31 03:01:36;;;;;;;2.20;1.05;;;;;;;18.54;29.65;101395.03;4198072;28;20041;-59
2022/03/31 03:03:38;;;;;;;2.67;1.10;;;;;;;18.47;29.81;101368.63;4197319;28;20442;-59
2022/03/31 03:05:41;;;;;;;1.45;1.00;;;;;;;18.54;29.50;101383.13;4198129;28;20098;-59
2022/03/31 03:07:43;;;;;;;1.63;0.95;;;;;;;18.54;29.64;101391.44;4198315;28;20041;-60
2022/03/31 03:09:44;;;;;;;0.90;0.80;;;;;;;18.54;29.54;101396.97;4198152;28;20086;-60
2022/03/31 03:11:46;;;;;;;1.58;1.08;;;;;;;18.54;29.61;101396.97;4179421;28;20033;-59
2022/03/31 03:13:48;;;;;;;1.70;1.42;;;;;;;18.53;29.56;101390.59;4197430;28;20094;-60
2022/03/31 03:15:54;;;;;;;1.20;0.88;;;;;;;18.53;29.87;101390.59;4198469;28;20407;-60
2022/03/31 03:17:55;;;;;;;1.55;0.80;;;;;;;18.54;29.68;101396.97;4198049;28;20098;-59
2022/03/31 03:19:56;;;;;;;1.15;1.00;;;;;;;18.55;29.37;101409.75;4197881;28;20476;-59
2022/03/31 03:21:58;;;;;;;2.25;0.95;;;;;;;18.52;29.47;101396.41;4196950;28;20546;-60
2022/03/31 03:23:59;;;;;;;1.23;0.93;;;;;;;18.54;29.56;101395.03;4180212;28;20037;-60
2022/03/31 03:26:01;;;;;;;1.77;1.10;;;;;;;18.54;29.37;101396.97;4196136;28;20106;-60
2022/03/31 03:28:03;;;;;;;1.48;0.95;;;;;;;18.54;29.90;101386.72;4179281;28;20538;-59
2022/03/31 03:30:08;;;;;;;2.28;1.08;;;;;;;18.54;29.62;101374.81;4197822;28;20200;-60
2022/03/31 03:32:10;;;;;;;1.58;1.00;;;;;;;18.54;29.82;101381.19;4197527;28;20040;-59
2022/03/31 03:34:13;;;;;;;1.17;0.85;;;;;;;18.54;29.87;101372.88;4197866;28;20036;-59
2022/03/31 03:36:17;;;;;;;2.33;1.17;;;;;;;18.53;29.82;101370.38;4197280;28;20155;-59
2022/03/31 03:38:19;;;;;;;1.55;0.90;;;;;;;18.54;29.53;101386.72;4197816;28;20040;-61
2022/03/31 03:40:20;;;;;;;1.00;0.88;;;;;;;18.55;29.84;101376.47;4197436;28;20040;-58
2022/03/31 03:42:25;;;;;;;1.08;0.90;;;;;;;18.54;29.62;101380.34;4197008;28;20118;-59
2022/03/31 03:44:27;;;;;;;1.30;0.95;;;;;;;18.54;29.97;101380.34;4180382;28;20159;-60
2022/03/31 03:46:34;;;;;;;2.10;1.13;;;;;;;18.55;29.79;101387.56;4180156;28;20033;-61
2022/03/31 03:48:36;;;;;;;1.80;1.00;;;;;;;18.54;29.99;101389.50;4197163;28;20045;-58
2022/03/31 03:50:41;;;;;;;1.73;0.90;;;;;;;18.51;29.90;101372.56;4196748;28;20496;-58
2022/03/31 03:52:48;;;;;;;0.82;0.80;;;;;;;18.54;29.58;101380.34;4197100;28;20081;-59
2022/03/31 03:54:50;;;;;;;1.88;0.95;;;;;;;18.52;30.05;101372.31;4197989;28;20082;-59
2022/03/31 03:56:57;;;;;;;1.58;1.00;;;;;;;18.49;30.02;101360.88;4197583;28;20045;-59
2022/03/31 03:59:01;;;;;;;1.13;0.90;;;;;;;18.51;29.78;101359.53;4197462;28;20521;-59
2022/03/31 04:01:03;;;;;;;1.58;1.20;;;;;;;18.52;29.98;101363.16;4197219;28;20102;-60
2022/03/31 04:03:05;;;;;;;2.30;1.05;;;;;;;18.52;29.86;101354.84;4197038;28;20093;-60
2022/03/31 04:05:06;;;;;;;1.02;0.82;;;;;;;18.49;29.85;101344.25;4197494;28;20098;-60
2022/03/31 04:07:08;;;;;;;1.67;1.00;;;;;;;18.48;29.74;101332.34;4197627;28;20484;-60
2022/03/31 04:09:09;;;;;;;1.38;0.80;;;;;;;18.51;29.62;101339.31;4197393;28;20032;-60
2022/03/31 04:11:11;;;;;;;1.25;0.90;;;;;;;18.51;29.76;101331.00;4196884;28;20480;-60
2022/03/31 04:13:12;;;;;;;1.48;1.20;;;;;;;18.52;29.99;101327.13;4195371;28;20102;-60
2022/03/31 04:15:16;;;;;;;1.70;1.10;;;;;;;18.51;29.99;101319.91;4197161;28;20040;-60
2022/03/31 04:17:18;;;;;;;1.65;1.10;;;;;;;18.51;30.30;101323.53;4197049;28;20049;-60
2022/03/31 04:19:19;;;;;;;2.30;0.73;;;;;;;18.52;30.47;101308.56;4191639;28;20102;-60
2022/03/31 04:21:21;;;;;;;4.38;1.30;;;;;;;18.52;30.16;101299.41;4197287;28;20434;-60
2022/03/31 04:23:22;;;;;;;9.77;1.60;;;;;;;18.51;30.54;101293.03;4197074;28;20037;-60
2022/03/31 04:25:24;;;;;;;10.60;1.42;;;;;;;18.52;30.45;101288.31;4198136;28;20090;-59
2022/03/31 04:27:25;;;;;;;6.63;1.20;;;;;;;18.51;30.17;101258.94;4198016;28;20086;-59
2022/03/31 04:29:27;;;;;;;4.60;1.15;;;;;;;18.51;30.35;101243.16;4197300;28;20086;-60
2022/03/31 04:31:29;;;;;;;4.00;0.95;;;;;;;18.52;30.56;101247.59;4197350;28;20045;-60
2022/03/31 04:33:30;;;;;;;1.92;0.90;;;;;;;18.53;30.36;101245.66;4196702;28;20106;-60
2022/03/31 04:35:32;;;;;;;5.15;1.38;;;;;;;18.54;30.19;101239.00;4197462;28;20032;-60
2022/03/31 04:37:34;;;;;;;3.92;1.00;;;;;;;18.54;30.30;101239.00;4197296;28;20082;-60
2022/03/31 04:39:36;;;;;;;3.63;1.15;;;;;;;18.55;30.59;101246.22;4178944;28;20131;-60
2022/03/31 04:41:40;;;;;;;3.63;1.20;;;;;;;18.56;30.49;101216.59;4180406;28;20428;-60
2022/03/31 04:43:44;;;;;;;2.65;1.17;;;;;;;18.55;30.12;101226.81;4181245;28;20419;-60
2022/03/31 04:45:47;;;;;;;2.42;1.00;;;;;;;18.57;30.46;101221.03;4180835;28;20106;-59
2022/03/31 04:47:55;;;;;;;1.17;0.90;;;;;;;18.54;30.52;101219.59;4180695;28;20603;-60
2022/03/31 04:49:57;;;;;;;3.05;0.90;;;;;;;18.57;30.23;101227.41;4180221;28;20098;-59
2022/03/31 04:52:04;;;;;;;3.63;1.38;;;;;;;18.57;30.54;101235.72;4180255;28;20091;-60
2022/03/31 04:54:05;;;;;;;3.15;1.00;;;;;;;18.59;30.46;101225.22;4179332;28;20040;-59
2022/03/31 04:56:07;;;;;;;1.10;1.00;;;;;;;18.58;30.10;101223.53;4180655;28;20045;-59
2022/03/31 04:58:11;;;;;;;2.30;0.90;;;;;;;18.58;30.27;101209.69;4180643;28;20102;-59
2022/03/31 05:00:13;;;;;;;1.00;0.90;;;;;;;18.58;30.46;101204.13;4180639;28;20041;-59
2022/03/31 05:04:31;;;;;;;1.90;1.20;;;;;;;18.59;30.24;101211.34;4925746;22;20009;-66
2022/03/31 05:06:32;;;;;;;3.28;1.15;;;;;;;18.58;30.28;101219.94;4179090;28;20442;-65
2022/03/31 05:08:34;;;;;;;2.88;1.00;;;;;;;18.59;30.25;101216.06;4179728;28;20475;-66
2022/03/31 05:10:36;;;;;;;2.85;2.03;;;;;;;18.61;30.52;101219.44;4178616;28;20056;-65
2022/03/31 05:12:37;;;;;;;1.75;1.20;;;;;;;18.61;30.17;101220.25;4180384;28;20106;-65
2022/03/31 05:14:39;;;;;;;1.88;1.00;;;;;;;18.61;30.59;101228.56;4165885;28;20045;-65
2022/03/31 05:16:40;;;;;;;2.20;1.20;;;;;;;18.60;30.28;101214.97;4183287;28;20041;-66
2022/03/31 05:18:43;;;;;;;2.22;1.02;;;;;;;18.57;30.37;101210.78;4183128;28;20434;-64
2022/03/31 05:20:45;;;;;;;1.92;1.15;;;;;;;18.62;30.46;101207.25;4183026;28;20091;-64
2022/03/31 05:22:46;;;;;;;2.42;1.23;;;;;;;18.57;30.06;101213.56;4183333;28;20368;-64
2022/03/31 05:24:47;;;;;;;1.83;0.95;;;;;;;18.62;30.49;101204.47;4182942;28;20436;-65
2022/03/31 05:26:52;;;;;;;2.53;0.90;;;;;;;18.62;30.44;101191.44;4165660;28;20045;-66
2022/03/31 05:28:53;;;;;;;3.07;1.00;;;;;;;18.62;30.10;101188.66;4183118;28;20437;-66
2022/03/31 05:30:55;;;;;;;2.35;1.00;;;;;;;18.62;30.31;101183.13;4183097;28;20082;-66
2022/03/31 05:32:56;;;;;;;2.88;1.88;;;;;;;18.62;30.58;101177.59;4164340;28;20430;-66
2022/03/31 05:34:58;;;;;;;4.28;1.33;;;;;;;18.63;30.19;101178.41;4182331;28;20045;-65
2022/03/31 05:36:59;;;;;;;1.48;1.10;;;;;;;18.51;30.31;101153.63;4182518;28;20033;-65
2022/03/31 05:39:02;;;;;;;1.35;0.93;;;;;;;18.59;30.19;101164.22;4182844;28;20122;-65
2022/03/31 05:41:04;;;;;;;1.75;0.80;;;;;;;18.62;30.54;101155.41;4182883;28;20045;-65
2022/03/31 05:43:05;;;;;;;2.10;1.08;;;;;;;18.63;30.62;101157.06;4183026;28;20037;-66
2022/03/31 05:45:09;;;;;;;3.03;0.98;;;;;;;18.62;30.29;101143.50;4182571;28;20537;-65
2022/03/31 05:47:11;;;;;;;1.73;1.15;;;;;;;18.63;30.46;101140.44;4182882;28;20064;-65
2022/03/31 05:49:12;;;;;;;2.40;1.17;;;;;;;18.63;30.46;101134.91;4182687;28;20087;-65
2022/03/31 05:51:14;;;;;;;2.75;0.98;;;;;;;18.58;30.33;101137.63;4184037;28;20422;-65
2022/03/31 05:53:19;;;;;;;3.00;1.63;;;;;;;18.62;30.20;101138.78;4182647;28;20045;-65
2022/03/31 05:55:20;;;;;;;1.47;1.00;;;;;;;18.63;30.31;101118.28;4183115;28;20435;-65
2022/03/31 05:57:22;;;;;;;2.63;1.02;;;;;;;18.64;30.56;101119.09;4182242;28;20312;-65
2022/03/31 05:59:23;;;;;;;3.58;1.10;;;;;;;18.64;30.31;101119.09;4182630;28;20115;-66
2022/03/31 06:01:24;;;;;;;1.58;1.13;;;;;;;18.60;30.33;101107.72;4182578;28;20422;-65
2022/03/31 06:03:26;;;;;;;2.00;1.08;;;;;;;18.60;30.19;101106.88;4182806;28;20080;-65
2022/03/31 06:05:27;;;;;;;2.45;1.13;;;;;;;18.64;30.18;101108.84;4182811;28;20095;-65
2022/03/31 06:07:29;;;;;;;2.22;0.90;;;;;;;18.64;30.25;101105.25;4182904;28;20383;-65
2022/03/31 06:09:30;;;;;;;2.20;1.20;;;;;;;18.64;30.59;101102.47;4182254;28;20041;-65
2022/03/31 06:11:31;;;;;;;1.30;1.05;;;;;;;18.64;30.26;101103.31;4182331;28;20075;-65
2022/03/31 06:13:33;;;;;;;1.60;0.80;;;;;;;18.64;30.33;101095.00;4182252;28;20041;-65
2022/03/31 06:15:35;;;;;;;2.20;1.20;;;;;;;18.64;30.31;101097.75;4181791;28;20099;-65
2022/03/31 06:17:40;;;;;;;0.93;0.85;;;;;;;18.54;30.48;101081.88;4182439;28;20071;-66
2022/03/31 06:19:42;;;;;;;3.10;0.90;;;;;;;18.62;30.46;101082.50;4182373;28;20171;-65
2022/03/31 06:21:44;;;;;;;1.42;1.02;;;;;;;18.65;30.09;101087.53;4182405;28;20529;-65
2022/03/31 06:23:48;;;;;;;2.80;1.40;;;;;;;18.65;30.21;101082.84;4182175;28;20090;-65
2022/03/31 06:25:50;;;;;;;2.60;1.10;;;;;;;18.64;30.35;101086.69;4181757;28;20041;-65
2022/03/31 06:27:52;;;;;;;2.47;1.30;;;;;;;18.46;30.46;101042.72;4182313;28;20336;-67
2022/03/31 06:29:54;;;;;;;2.58;1.20;;;;;;;18.64;30.25;101075.59;4183091;28;20090;-66
2022/03/31 06:31:56;;;;;;;1.55;0.75;;;;;;;18.62;30.39;101063.94;4182076;28;20468;-66
2022/03/31 06:33:58;;;;;;;1.77;1.05;;;;;;;18.64;30.19;101070.03;4181501;28;20102;-65
2022/03/31 06:35:59;;;;;;;2.10;1.70;;;;;;;18.64;30.48;101058.97;4181907;28;20361;-65
2022/03/31 06:38:01;;;;;;;1.73;1.08;;;;;;;18.56;30.57;101045.59;4181872;28;20033;-65
2022/03/31 06:40:03;;;;;;;2.75;1.30;;;;;;;18.66;30.39;101061.50;4182011;28;20415;-66
2022/03/31 06:42:04;;;;;;;1.80;1.13;;;;;;;18.64;30.18;101061.72;4181993;28;20118;-65
2022/03/31 06:44:08;;;;;;;1.70;1.10;;;;;;;18.64;30.40;101053.41;4181848;28;20033;-65
2022/03/31 06:46:09;;;;;;;1.65;1.00;;;;;;;18.52;30.44;101033.38;4181938;28;20106;-66
2022/03/31 06:48:11;;;;;;;2.03;0.93;;;;;;;18.64;30.38;101053.41;4148023;28;20488;-65
2022/03/31 06:50:13;;;;;;;0.95;0.88;;;;;;;18.65;30.61;101044.03;4181358;28;20095;-66
2022/03/31 06:52:14;;;;;;;1.50;1.17;;;;;;;18.62;30.33;101033.47;4181639;28;20545;-66
2022/03/31 06:54:18;;;;;;;2.53;1.25;;;;;;;18.64;30.34;101034.00;4181066;28;20075;-66
2022/03/31 06:56:20;;;;;;;2.45;1.00;;;;;;;18.66;30.63;101029.06;4181889;28;20045;-66
2022/03/31 06:58:26;;;;;;;1.52;0.90;;;;;;;18.66;30.61;101031.00;4182593;28;20033;-65
2022/03/31 07:00:29;;;;;;;2.17;1.38;;;;;;;18.66;30.66;101025.47;4181387;28;20049;-65
2022/03/31 07:02:30;;;;;;;2.00;1.17;;;;;;;18.56;30.51;100992.94;4181824;28;20041;-66
2022/03/31 07:04:31;;;;;;;2.33;1.27;;;;;;;18.65;30.25;101008.00;4164381;28;20088;-65
2022/03/31 07:06:37;;;;;;;1.95;1.20;;;;;;;18.65;30.62;101016.31;4181339;28;20041;-66
2022/03/31 07:08:41;;;;;;;4.13;1.40;;;;;;;18.60;30.63;101007.94;4181482;28;20437;-66
2022/03/31 07:10:44;;;;;;;1.85;1.17;;;;;;;18.63;30.78;101003.81;4181602;28;20430;-66
2022/03/31 07:12:45;;;;;;;2.38;1.02;;;;;;;18.67;30.67;101002.19;4181591;28;20045;-65
2022/03/31 07:14:47;;;;;;;1.55;0.90;;;;;;;18.65;30.19;101001.63;4180453;28;20111;-65
2022/03/31 07:16:48;;;;;;;2.03;1.13;;;;;;;18.66;30.24;101001.34;4181783;28;20090;-65
2022/03/31 07:18:49;;;;;;;1.23;0.98;;;;;;;18.66;30.17;100995.81;4181778;28;20049;-66
2022/03/31 07:20:54;;;;;;;1.40;1.00;;;;;;;18.66;30.46;100994.97;4181410;28;20037;-65
2022/03/31 07:22:55;;;;;;;1.90;1.10;;;;;;;18.65;30.41;100991.38;4181529;28;20098;-65
2022/03/31 07:24:57;;;;;;;1.73;1.00;;;;;;;18.65;30.60;100983.06;4180903;28;20191;-65
2022/03/31 07:26:58;;;;;;;1.83;1.05;;;;;;;18.65;30.42;100994.13;4181337;28;20094;-65
2022/03/31 07:29:00;;;;;;;2.00;1.20;;;;;;;18.66;30.53;100983.88;4181351;28;20102;-65
2022/03/31 07:31:01;;;;;;;3.00;1.00;;;;;;;18.59;30.65;100967.47;4163527;28;20534;-66
2022/03/31 07:33:04;;;;;;;2.83;1.30;;;;;;;18.64;30.93;100975.81;4182025;28;20082;-65
2022/03/31 07:35:10;;;;;;;2.13;0.90;;;;;;;18.57;31.20;100961.34;4180013;28;20045;-65
2022/03/31 07:37:12;;;;;;;3.40;1.08;;;;;;;18.66;31.88;100968.09;4181004;28;20106;-65
2022/03/31 07:39:13;;;;;;;2.83;1.25;;;;;;;18.66;31.75;100962.53;4180947;28;20106;-65
2022/03/31 07:41:18;;;;;;;1.95;1.20;;;;;;;18.66;32.01;100959.75;4181479;28;20040;-65
2022/03/31 07:43:19;;;;;;;4.32;1.17;;;;;;;18.61;32.04;100953.34;4181137;28;20095;-65
2022/03/31 07:45:22;;;;;;;2.45;0.82;;;;;;;18.62;31.60;100955.84;4180708;28;20537;-66
2022/03/31 07:47:23;;;;;;;1.95;1.10;;;;;;;18.65;31.74;100946.19;4180946;28;20041;-65
2022/03/31 07:49:24;;;;;;;2.90;1.10;;;;;;;18.63;31.82;100946.44;4163568;28;20096;-65
2022/03/31 07:51:26;;;;;;;2.45;1.05;;;;;;;18.65;31.70;100955.34;4180345;28;20040;-66
2022/03/31 07:53:35;;;;;;;1.70;1.02;;;;;;;18.61;31.54;100937.56;4180814;28;20166;-65
2022/03/31 07:55:37;;;;;;;1.88;1.10;;;;;;;18.64;31.43;100937.00;4180614;28;20045;-66
2022/03/31 07:57:39;;;;;;;2.05;1.17;;;;;;;18.61;31.89;100920.94;4180648;28;20099;-65
2022/03/31 07:59:41;;;;;;;2.95;1.08;;;;;;;18.63;31.49;100923.41;4180318;28;20037;-65
2022/03/31 08:01:43;;;;;;;1.60;1.08;;;;;;;18.62;31.92;100917.06;4181371;28;20049;-65
2022/03/31 08:03:44;;;;;;;2.22;1.40;;;;;;;18.61;31.43;100926.47;4180210;28;20075;-66
2022/03/31 08:05:46;;;;;;;4.05;1.23;;;;;;;18.60;31.60;100924.81;4179833;28;20053;-65
2022/03/31 08:07:48;;;;;;;1.33;0.93;;;;;;;18.61;31.68;100926.47;4181582;28;20032;-65
2022/03/31 08:09:50;;;;;;;2.40;1.10;;;;;;;18.60;31.60;100921.16;4180654;28;20099;-66
2022/03/31 08:11:51;;;;;;;2.08;1.35;;;;;;;18.60;31.79;100924.81;4180104;28;20045;-65
2022/03/31 08:13:53;;;;;;;1.88;1.23;;;;;;;18.61;31.76;100920.94;4180539;28;20045;-65
2022/03/31 08:15:56;;;;;;;3.80;1.23;;;;;;;18.59;31.94;100917.56;4180444;28;20041;-66
2022/03/31 08:17:58;;;;;;;1.85;1.15;;;;;;;18.61;31.77;100914.56;4180515;28;20095;-65
2022/03/31 08:20:00;;;;;;;2.33;1.00;;;;;;;18.60;31.72;100916.50;4180578;28;20082;-65
2022/03/31 08:22:02;;;;;;;1.75;1.33;;;;;;;18.60;31.93;100908.19;4181550;28;20075;-65
2022/03/31 08:24:13;;;;;;;3.53;1.05;;;;;;;18.58;31.58;100906.75;4180339;28;20098;-65
2022/03/31 08:26:15;;;;;;;1.27;1.00;;;;;;;18.60;31.64;100908.19;4180599;28;20102;-65
2022/03/31 08:28:16;;;;;;;1.88;1.23;;;;;;;18.59;31.96;100903.72;4180862;28;20091;-65
2022/03/31 08:30:20;;;;;;;3.08;1.20;;;;;;;18.60;32.05;100897.09;4180523;28;20041;-65
2022/03/31 08:32:21;;;;;;;2.45;0.90;;;;;;;18.50;31.58;100875.66;4180515;28;20091;-66
2022/03/31 08:34:26;;;;;;;1.50;0.90;;;;;;;18.58;32.12;100884.59;4180112;28;20049;-65
2022/03/31 08:36:29;;;;;;;1.42;0.90;;;;;;;18.57;31.64;100892.06;4180630;28;20434;-66
2022/03/31 08:38:30;;;;;;;2.72;1.25;;;;;;;18.60;31.88;100880.47;4180289;28;20090;-65
2022/03/31 08:40:31;;;;;;;1.55;1.10;;;;;;;18.59;31.94;100873.22;4179181;28;20357;-65
2022/03/31 08:42:33;;;;;;;2.05;1.17;;;;;;;18.59;32.22;100870.47;4180350;28;20475;-65
2022/03/31 08:44:41;;;;;;;1.67;1.15;;;;;;;18.57;31.93;100871.84;4180049;28;20033;-64
2022/03/31 08:46:45;;;;;;;2.08;1.30;;;;;;;18.59;31.81;100867.69;4180157;28;20049;-65
2022/03/31 08:48:47;;;;;;;2.72;1.58;;;;;;;18.59;32.22;100867.69;4183490;28;20079;-65
2022/03/31 08:50:51;;;;;;;1.85;1.00;;;;;;;18.59;31.76;100867.69;4183762;28;20090;-65
2022/03/31 08:52:53;;;;;;;2.17;1.20;;;;;;;18.59;32.12;100853.81;4183837;28;20110;-65
2022/03/31 08:54:55;;;;;;;1.65;1.10;;;;;;;18.59;31.93;100850.22;4183009;28;20045;-65
2022/03/31 08:56:58;;;;;;;3.72;1.13;;;;;;;18.57;31.93;100841.34;4183351;28;20434;-66
2022/03/31 08:59:00;;;;;;;1.50;1.17;;;;;;;18.57;32.30;100841.34;4183709;28;20478;-65
2022/03/31 09:01:04;;;;;;;1.92;1.10;;;;;;;18.54;31.88;100837.16;4183868;28;20091;-65
2022/03/31 09:03:10;;;;;;;3.65;1.40;;;;;;;18.49;32.01;100824.13;4183759;28;20103;-65
2022/03/31 09:05:12;;;;;;;1.40;1.05;;;;;;;18.56;32.18;100823.91;4182972;28;20099;-65
2022/03/31 09:07:13;;;;;;;1.40;1.17;;;;;;;18.59;31.85;100828.88;4183457;28;20041;-65
2022/03/31 09:09:17;;;;;;;2.13;1.55;;;;;;;18.59;32.07;100828.88;4183602;28;20045;-64
2022/03/31 09:11:30;;;;;;;1.65;0.90;;;;;;;18.56;31.99;100818.34;4183134;28;20422;-65
2022/03/31 09:13:37;;;;;;;0.95;0.85;;;;;;;18.53;31.92;100811.41;4183478;28;20091;-65
2022/03/31 09:15:50;;;;;;;1.33;1.13;;;;;;;18.59;31.89;100817.81;4183095;28;20449;-65
2022/03/31 09:17:59;;;;;;;2.03;1.13;;;;;;;18.56;32.08;100815.59;4183269;28;20041;-65
2022/03/31 09:20:01;;;;;;;3.08;1.40;;;;;;;18.59;31.99;100817.81;4183806;28;20040;-65
2022/03/31 09:22:02;;;;;;;1.13;0.93;;;;;;;18.47;31.90;100789.47;4184587;28;20025;-65
2022/03/31 09:24:04;;;;;;;1.55;1.15;;;;;;;18.57;31.96;100791.47;4183515;28;20044;-66
2022/03/31 09:26:09;;;;;;;3.70;1.60;;;;;;;18.58;32.37;100799.50;4166490;28;20038;-65
2022/03/31 09:28:22;;;;;;;1.20;1.00;;;;;;;18.58;32.37;100798.69;4183306;28;20441;-65
2022/03/31 09:30:27;;;;;;;1.70;1.20;;;;;;;18.58;32.34;100793.97;4183108;28;20414;-65
2022/03/31 09:32:28;;;;;;;2.08;1.10;;;;;;;18.58;31.94;100776.50;4183159;28;20090;-65
2022/03/31 09:34:38;;;;;;;1.23;0.90;;;;;;;18.58;32.12;100777.34;4183412;28;20037;-65